sensor_id;sensor_type;location;lat;lon;timestamp;pressure;altitude;pressure_sealevel;temperature;humidity
40612;BME280;26317;44.894;20.286;2022-08-01T00:00:10;100576.91;;;22.15;43.31
40612;BME280;26317;44.894;20.286;2022-08-01T00:02:40;100567.34;;;22.09;43.66
40612;BME280;26317;44.894;20.286;2022-08-01T00:05:11;100579.44;;;22.08;44.21
40612;BME280;26317;44.894;20.286;2022-08-01T00:07:40;100573.75;;;22.00;44.04
40612;BME280;26317;44.894;20.286;2022-08-01T00:10:11;100583.09;;;21.99;44.46
40612;BME280;26317;44.894;20.286;2022-08-01T00:12:40;100594.38;;;21.98;44.21
40612;BME280;26317;44.894;20.286;2022-08-01T00:15:12;100598.13;;;21.81;43.87
40612;BME280;26317;44.894;20.286;2022-08-01T00:17:42;100573.94;;;21.55;44.08
40612;BME280;26317;44.894;20.286;2022-08-01T00:20:14;100590.88;;;21.61;45.31
40612;BME280;26317;44.894;20.286;2022-08-01T00:22:44;100584.97;;;21.47;45.29
40612;BME280;26317;44.894;20.286;2022-08-01T00:25:12;100583.72;;;21.44;45.70
40612;BME280;26317;44.894;20.286;2022-08-01T00:27:41;100575.19;;;21.34;45.63
40612;BME280;26317;44.894;20.286;2022-08-01T00:30:11;100582.84;;;21.28;45.64
40612;BME280;26317;44.894;20.286;2022-08-01T00:32:41;100578.41;;;21.24;45.66
40612;BME280;26317;44.894;20.286;2022-08-01T00:35:09;100577.59;;;21.23;45.98
40612;BME280;26317;44.894;20.286;2022-08-01T00:37:41;100567.91;;;21.14;46.44
40612;BME280;26317;44.894;20.286;2022-08-01T00:40:10;100574.28;;;21.18;46.04
40612;BME280;26317;44.894;20.286;2022-08-01T00:42:39;100580.53;;;21.18;46.33
40612;BME280;26317;44.894;20.286;2022-08-01T00:45:09;100580.09;;;21.16;46.32
40612;BME280;26317;44.894;20.286;2022-08-01T00:47:38;100580.97;;;21.08;46.55
40612;BME280;26317;44.894;20.286;2022-08-01T00:50:09;100559.25;;;20.87;47.08
40612;BME280;26317;44.894;20.286;2022-08-01T00:52:42;100578.91;;;20.93;47.21
40612;BME280;26317;44.894;20.286;2022-08-01T00:55:12;100562.16;;;20.70;47.21
40612;BME280;26317;44.894;20.286;2022-08-01T00:57:43;100584.22;;;20.77;47.26
40612;BME280;26317;44.894;20.286;2022-08-01T01:00:14;100552.94;;;20.62;47.29
40612;BME280;26317;44.894;20.286;2022-08-01T01:02:43;100585.34;;;20.76;47.07
40612;BME280;26317;44.894;20.286;2022-08-01T01:05:12;100586.22;;;20.68;47.36
40612;BME280;26317;44.894;20.286;2022-08-01T01:07:50;100584.50;;;20.63;47.07
40612;BME280;26317;44.894;20.286;2022-08-01T01:10:25;100574.16;;;20.57;47.74
40612;BME280;26317;44.894;20.286;2022-08-01T01:13:02;100576.97;;;20.48;47.78
40612;BME280;26317;44.894;20.286;2022-08-01T01:15:37;100579.00;;;20.39;48.05
40612;BME280;26317;44.894;20.286;2022-08-01T01:18:14;100570.63;;;20.24;48.41
40612;BME280;26317;44.894;20.286;2022-08-01T01:20:50;100585.03;;;20.24;48.93
40612;BME280;26317;44.894;20.286;2022-08-01T01:23:40;100589.09;;;20.18;48.95
40612;BME280;26317;44.894;20.286;2022-08-01T01:26:34;100588.97;;;20.14;49.04
40612;BME280;26317;44.894;20.286;2022-08-01T01:29:12;100581.66;;;20.06;48.77
40612;BME280;26317;44.894;20.286;2022-08-01T01:31:46;100580.06;;;20.05;48.86
40612;BME280;26317;44.894;20.286;2022-08-01T01:34:19;100562.53;;;19.94;48.88
40612;BME280;26317;44.894;20.286;2022-08-01T01:36:50;100577.53;;;20.00;49.63
40612;BME280;26317;44.894;20.286;2022-08-01T01:39:23;100577.28;;;19.93;49.31
40612;BME280;26317;44.894;20.286;2022-08-01T01:41:54;100579.66;;;19.95;49.48
40612;BME280;26317;44.894;20.286;2022-08-01T01:44:27;100573.63;;;19.89;49.71
40612;BME280;26317;44.894;20.286;2022-08-01T01:46:56;100561.06;;;19.76;50.54
40612;BME280;26317;44.894;20.286;2022-08-01T01:49:27;100558.81;;;19.78;49.71
40612;BME280;26317;44.894;20.286;2022-08-01T01:51:57;100552.75;;;19.72;49.96
40612;BME280;26317;44.894;20.286;2022-08-01T01:54:30;100548.31;;;19.68;49.65
40612;BME280;26317;44.894;20.286;2022-08-01T01:57:02;100575.78;;;19.75;50.50
40612;BME280;26317;44.894;20.286;2022-08-01T01:59:36;100535.16;;;19.49;50.18
40612;BME280;26317;44.894;20.286;2022-08-01T02:09:03;100576.31;;;19.68;50.58
40612;BME280;26317;44.894;20.286;2022-08-01T02:11:34;100576.19;;;19.65;51.04
40612;BME280;26317;44.894;20.286;2022-08-01T02:14:04;100567.59;;;19.54;50.77
40612;BME280;26317;44.894;20.286;2022-08-01T02:16:40;100576.09;;;19.53;50.98
40612;BME280;26317;44.894;20.286;2022-08-01T02:19:10;100527.41;;;19.30;50.87
40612;BME280;26317;44.894;20.286;2022-08-01T02:21:44;100573.25;;;19.49;51.18
40612;BME280;26317;44.894;20.286;2022-08-01T02:24:19;100574.38;;;19.48;51.52
40612;BME280;26317;44.894;20.286;2022-08-01T02:26:52;100523.66;;;19.14;51.71
40612;BME280;26317;44.894;20.286;2022-08-01T02:29:29;100568.44;;;19.46;51.73
40612;BME280;26317;44.894;20.286;2022-08-01T02:32:05;100559.84;;;19.36;51.65
40612;BME280;26317;44.894;20.286;2022-08-01T02:34:35;100572.00;;;19.38;51.77
40612;BME280;26317;44.894;20.286;2022-08-01T02:37:04;100552.06;;;19.25;51.74
40612;BME280;26317;44.894;20.286;2022-08-01T02:39:35;100563.56;;;19.31;51.87
40612;BME280;26317;44.894;20.286;2022-08-01T02:42:06;100543.00;;;19.13;51.59
40612;BME280;26317;44.894;20.286;2022-08-01T02:44:38;100571.91;;;19.26;51.77
40612;BME280;26317;44.894;20.286;2022-08-01T02:47:12;100578.63;;;19.28;52.25
40612;BME280;26317;44.894;20.286;2022-08-01T02:49:44;100580.06;;;19.26;52.27
40612;BME280;26317;44.894;20.286;2022-08-01T02:52:16;100544.81;;;19.00;51.85
40612;BME280;26317;44.894;20.286;2022-08-01T02:54:49;100583.44;;;19.23;52.58
40612;BME280;26317;44.894;20.286;2022-08-01T02:57:20;100585.66;;;19.21;52.90
40612;BME280;26317;44.894;20.286;2022-08-01T02:59:50;100569.88;;;19.14;52.82
40612;BME280;26317;44.894;20.286;2022-08-01T03:02:23;100575.31;;;19.14;52.89
40612;BME280;26317;44.894;20.286;2022-08-01T03:04:53;100567.88;;;18.94;53.17
40612;BME280;26317;44.894;20.286;2022-08-01T03:07:25;100582.72;;;18.97;53.18
40612;BME280;26317;44.894;20.286;2022-08-01T03:09:56;100585.63;;;18.92;53.44
40612;BME280;26317;44.894;20.286;2022-08-01T03:12:27;100570.63;;;18.86;53.86
40612;BME280;26317;44.894;20.286;2022-08-01T03:14:59;100571.13;;;18.79;53.97
40612;BME280;26317;44.894;20.286;2022-08-01T03:17:32;100591.56;;;18.85;54.31
40612;BME280;26317;44.894;20.286;2022-08-01T03:20:04;100589.69;;;18.77;54.17
40612;BME280;26317;44.894;20.286;2022-08-01T03:22:34;100564.28;;;18.64;54.59
40612;BME280;26317;44.894;20.286;2022-08-01T03:25:07;100590.78;;;18.76;54.18
40612;BME280;26317;44.894;20.286;2022-08-01T03:27:36;100587.28;;;18.75;54.07
40612;BME280;26317;44.894;20.286;2022-08-01T03:30:07;100589.38;;;18.70;54.87
40612;BME280;26317;44.894;20.286;2022-08-01T03:32:39;100591.31;;;18.69;54.37
40612;BME280;26317;44.894;20.286;2022-08-01T03:35:08;100582.50;;;18.64;54.23
40612;BME280;26317;44.894;20.286;2022-08-01T03:37:41;100557.25;;;18.46;54.61
40612;BME280;26317;44.894;20.286;2022-08-01T03:40:14;100584.56;;;18.67;54.33
40612;BME280;26317;44.894;20.286;2022-08-01T03:42:48;100544.66;;;18.42;54.87
40612;BME280;26317;44.894;20.286;2022-08-01T03:45:22;100574.38;;;18.64;55.12
40612;BME280;26317;44.894;20.286;2022-08-01T03:47:57;100547.38;;;18.42;54.44
40612;BME280;26317;44.894;20.286;2022-08-01T03:50:29;100579.78;;;18.64;54.39
40612;BME280;26317;44.894;20.286;2022-08-01T03:53:01;100539.69;;;18.44;54.48
40612;BME280;26317;44.894;20.286;2022-08-01T03:55:31;100574.50;;;18.67;55.09
40612;BME280;26317;44.894;20.286;2022-08-01T03:58:03;100571.78;;;18.76;54.45
40612;BME280;26317;44.894;20.286;2022-08-01T04:00:33;100571.91;;;18.79;54.58
40612;BME280;26317;44.894;20.286;2022-08-01T04:03:07;100569.69;;;18.81;54.64
40612;BME280;26317;44.894;20.286;2022-08-01T04:05:37;100561.00;;;18.88;54.63
40612;BME280;26317;44.894;20.286;2022-08-01T04:08:06;100559.72;;;18.94;54.33
40612;BME280;26317;44.894;20.286;2022-08-01T04:10:36;100568.81;;;18.98;54.35
40612;BME280;26317;44.894;20.286;2022-08-01T04:13:05;100569.94;;;18.97;54.18
40612;BME280;26317;44.894;20.286;2022-08-01T04:15:34;100566.28;;;18.93;54.59
40612;BME280;26317;44.894;20.286;2022-08-01T04:18:06;100544.09;;;18.82;54.22
40612;BME280;26317;44.894;20.286;2022-08-01T04:20:35;100558.63;;;18.95;54.63
40612;BME280;26317;44.894;20.286;2022-08-01T04:23:04;100559.72;;;18.94;54.70
40612;BME280;26317;44.894;20.286;2022-08-01T04:25:34;100566.41;;;18.97;54.51
40612;BME280;26317;44.894;20.286;2022-08-01T04:28:06;100564.19;;;18.99;54.46
40612;BME280;26317;44.894;20.286;2022-08-01T04:30:43;100564.66;;;19.01;54.34
40612;BME280;26317;44.894;20.286;2022-08-01T04:33:16;100570.72;;;19.06;55.17
40612;BME280;26317;44.894;20.286;2022-08-01T04:35:47;100571.00;;;19.13;54.72
40612;BME280;26317;44.894;20.286;2022-08-01T04:38:20;100571.63;;;19.19;54.74
40612;BME280;26317;44.894;20.286;2022-08-01T04:40:50;100570.63;;;19.23;54.92
40612;BME280;26317;44.894;20.286;2022-08-01T04:43:21;100573.81;;;19.25;54.69
40612;BME280;26317;44.894;20.286;2022-08-01T04:45:51;100571.56;;;19.27;55.27
40612;BME280;26317;44.894;20.286;2022-08-01T04:48:23;100575.91;;;19.28;55.54
40612;BME280;26317;44.894;20.286;2022-08-01T04:50:54;100573.91;;;19.38;55.58
40612;BME280;26317;44.894;20.286;2022-08-01T04:53:23;100576.31;;;19.39;55.77
40612;BME280;26317;44.894;20.286;2022-08-01T04:55:52;100586.50;;;19.51;55.79
40612;BME280;26317;44.894;20.286;2022-08-01T04:58:21;100568.13;;;19.48;56.08
40612;BME280;26317;44.894;20.286;2022-08-01T05:00:50;100574.19;;;19.53;55.99
40612;BME280;26317;44.894;20.286;2022-08-01T05:03:22;100580.34;;;19.62;56.77
40612;BME280;26317;44.894;20.286;2022-08-01T05:05:51;100585.97;;;19.66;56.96
40612;BME280;26317;44.894;20.286;2022-08-01T05:08:22;100581.44;;;19.70;56.97
40612;BME280;26317;44.894;20.286;2022-08-01T05:10:52;100588.09;;;19.81;56.93
40612;BME280;26317;44.894;20.286;2022-08-01T05:13:21;100583.72;;;19.89;56.71
40612;BME280;26317;44.894;20.286;2022-08-01T05:15:50;100586.84;;;19.99;56.40
40612;BME280;26317;44.894;20.286;2022-08-01T05:18:22;100583.84;;;20.13;56.42
40612;BME280;26317;44.894;20.286;2022-08-01T05:20:51;100591.47;;;20.19;56.29
40612;BME280;26317;44.894;20.286;2022-08-01T05:23:19;100591.59;;;20.23;56.46
40612;BME280;26317;44.894;20.286;2022-08-01T05:25:48;100571.63;;;20.19;56.33
40612;BME280;26317;44.894;20.286;2022-08-01T05:28:17;100585.00;;;20.33;56.34
40612;BME280;26317;44.894;20.286;2022-08-01T05:30:46;100588.75;;;20.40;56.69
40612;BME280;26317;44.894;20.286;2022-08-01T05:33:15;100569.56;;;20.37;56.26
40612;BME280;26317;44.894;20.286;2022-08-01T05:35:48;100589.72;;;20.56;55.87
40612;BME280;26317;44.894;20.286;2022-08-01T05:38:17;100590.31;;;20.62;57.15
40612;BME280;26317;44.894;20.286;2022-08-01T05:40:46;100591.34;;;20.70;56.45
40612;BME280;26317;44.894;20.286;2022-08-01T05:43:15;100590.25;;;20.83;57.04
40612;BME280;26317;44.894;20.286;2022-08-01T05:45:45;100582.06;;;20.83;56.46
40612;BME280;26317;44.894;20.286;2022-08-01T05:48:14;100592.00;;;20.99;56.44
40612;BME280;26317;44.894;20.286;2022-08-01T05:50:43;100585.84;;;21.02;56.46
40612;BME280;26317;44.894;20.286;2022-08-01T05:53:16;100597.72;;;21.19;55.46
40612;BME280;26317;44.894;20.286;2022-08-01T05:55:44;100556.06;;;20.97;55.40
40612;BME280;26317;44.894;20.286;2022-08-01T05:58:13;100584.28;;;21.26;55.85
40612;BME280;26317;44.894;20.286;2022-08-01T06:00:42;100592.47;;;21.38;55.78
40612;BME280;26317;44.894;20.286;2022-08-01T06:03:11;100601.34;;;21.47;54.16
40612;BME280;26317;44.894;20.286;2022-08-01T06:05:40;100574.53;;;21.37;54.20
40612;BME280;26317;44.894;20.286;2022-08-01T06:08:09;100592.25;;;21.55;54.60
40612;BME280;26317;44.894;20.286;2022-08-01T06:10:41;100597.03;;;21.58;53.80
40612;BME280;26317;44.894;20.286;2022-08-01T06:13:10;100598.25;;;21.73;54.43
40612;BME280;26317;44.894;20.286;2022-08-01T06:15:39;100573.81;;;21.64;53.82
40612;BME280;26317;44.894;20.286;2022-08-01T06:18:08;100603.47;;;21.90;52.71
40612;BME280;26317;44.894;20.286;2022-08-01T06:20:37;100606.44;;;21.97;53.56
40612;BME280;26317;44.894;20.286;2022-08-01T06:23:06;100602.44;;;22.07;54.09
40612;BME280;26317;44.894;20.286;2022-08-01T06:25:35;100608.31;;;22.21;53.24
40612;BME280;26317;44.894;20.286;2022-08-01T06:28:06;100590.53;;;22.27;51.78
40612;BME280;26317;44.894;20.286;2022-08-01T06:30:35;100583.69;;;22.33;51.93
40612;BME280;26317;44.894;20.286;2022-08-01T06:33:04;100590.66;;;22.46;50.54
40612;BME280;26317;44.894;20.286;2022-08-01T06:35:34;100593.50;;;22.50;50.70
40612;BME280;26317;44.894;20.286;2022-08-01T06:38:03;100594.34;;;22.66;51.32
40612;BME280;26317;44.894;20.286;2022-08-01T06:40:32;100597.03;;;22.78;50.31
40612;BME280;26317;44.894;20.286;2022-08-01T06:43:01;100590.13;;;22.84;49.70
40612;BME280;26317;44.894;20.286;2022-08-01T06:45:32;100597.91;;;22.98;49.88
40612;BME280;26317;44.894;20.286;2022-08-01T06:48:02;100587.94;;;23.05;48.79
40612;BME280;26317;44.894;20.286;2022-08-01T06:50:32;100568.38;;;23.03;49.17
40612;BME280;26317;44.894;20.286;2022-08-01T06:53:01;100599.06;;;23.28;48.58
40612;BME280;26317;44.894;20.286;2022-08-01T06:55:30;100588.75;;;23.37;47.68
40612;BME280;26317;44.894;20.286;2022-08-01T06:57:59;100598.03;;;23.48;48.11
40612;BME280;26317;44.894;20.286;2022-08-01T07:00:28;100608.00;;;23.56;47.67
40612;BME280;26317;44.894;20.286;2022-08-01T07:03:00;100600.03;;;23.67;46.99
40612;BME280;26317;44.894;20.286;2022-08-01T07:05:28;100591.25;;;23.77;46.75
40612;BME280;26317;44.894;20.286;2022-08-01T07:07:57;100600.13;;;23.90;46.51
40612;BME280;26317;44.894;20.286;2022-08-01T07:10:27;100595.66;;;24.01;46.04
40612;BME280;26317;44.894;20.286;2022-08-01T07:12:55;100599.72;;;24.07;46.23
40612;BME280;26317;44.894;20.286;2022-08-01T07:15:24;100572.88;;;23.97;45.69
40612;BME280;26317;44.894;20.286;2022-08-01T07:17:54;100554.78;;;23.92;45.84
40612;BME280;26317;44.894;20.286;2022-08-01T07:20:29;100599.25;;;24.20;45.19
40612;BME280;26317;44.894;20.286;2022-08-01T07:22:58;100602.28;;;24.35;45.55
40612;BME280;26317;44.894;20.286;2022-08-01T07:25:27;100568.78;;;24.25;42.54
40612;BME280;26317;44.894;20.286;2022-08-01T07:27:56;100592.22;;;24.42;42.42
40612;BME280;26317;44.894;20.286;2022-08-01T07:30:25;100601.25;;;24.43;43.37
40612;BME280;26317;44.894;20.286;2022-08-01T07:32:54;100591.59;;;24.49;42.43
40612;BME280;26317;44.894;20.286;2022-08-01T07:35:23;100547.38;;;24.31;42.44
40612;BME280;26317;44.894;20.286;2022-08-01T07:37:55;100553.59;;;24.51;43.54
40612;BME280;26317;44.894;20.286;2022-08-01T07:40:24;100582.38;;;24.80;43.34
40612;BME280;26317;44.894;20.286;2022-08-01T07:42:53;100591.31;;;24.96;42.50
40612;BME280;26317;44.894;20.286;2022-08-01T07:45:22;100566.06;;;24.87;41.85
40612;BME280;26317;44.894;20.286;2022-08-01T07:47:52;100583.69;;;25.08;41.50
40612;BME280;26317;44.894;20.286;2022-08-01T07:50:21;100592.97;;;25.27;40.04
40612;BME280;26317;44.894;20.286;2022-08-01T07:52:50;100590.19;;;25.23;40.00
40612;BME280;26317;44.894;20.286;2022-08-01T07:55:22;100589.44;;;25.26;40.33
40612;BME280;26317;44.894;20.286;2022-08-01T07:57:52;100560.19;;;25.11;40.62
40612;BME280;26317;44.894;20.286;2022-08-01T08:00:20;100568.97;;;25.20;40.26
40612;BME280;26317;44.894;20.286;2022-08-01T08:02:49;100560.03;;;25.27;40.36
40612;BME280;26317;44.894;20.286;2022-08-01T08:05:19;100579.97;;;25.46;40.93
40612;BME280;26317;44.894;20.286;2022-08-01T08:07:48;100573.28;;;25.47;40.92
40612;BME280;26317;44.894;20.286;2022-08-01T08:10:17;100564.50;;;25.38;40.67
40612;BME280;26317;44.894;20.286;2022-08-01T08:12:48;100576.47;;;25.49;40.61
40612;BME280;26317;44.894;20.286;2022-08-01T08:15:17;100555.97;;;25.43;39.72
40612;BME280;26317;44.894;20.286;2022-08-01T08:17:46;100577.88;;;25.62;41.00
40612;BME280;26317;44.894;20.286;2022-08-01T08:20:16;100573.72;;;25.49;39.85
40612;BME280;26317;44.894;20.286;2022-08-01T08:22:47;100560.19;;;25.63;40.15
40612;BME280;26317;44.894;20.286;2022-08-01T08:25:16;100578.84;;;25.77;39.29
40612;BME280;26317;44.894;20.286;2022-08-01T08:27:45;100575.63;;;25.72;40.41
40612;BME280;26317;44.894;20.286;2022-08-01T08:30:16;100570.59;;;25.77;39.07
40612;BME280;26317;44.894;20.286;2022-08-01T08:32:46;100576.56;;;25.83;39.09
40612;BME280;26317;44.894;20.286;2022-08-01T08:35:15;100575.97;;;25.96;37.80
40612;BME280;26317;44.894;20.286;2022-08-01T08:37:44;100578.09;;;26.10;40.12
40612;BME280;26317;44.894;20.286;2022-08-01T08:40:13;100576.59;;;26.16;39.28
40612;BME280;26317;44.894;20.286;2022-08-01T08:42:43;100575.91;;;26.23;39.09
40612;BME280;26317;44.894;20.286;2022-08-01T08:45:16;100584.56;;;26.21;38.99
40612;BME280;26317;44.894;20.286;2022-08-01T08:47:45;100578.72;;;26.26;37.80
40612;BME280;26317;44.894;20.286;2022-08-01T08:50:16;100577.75;;;26.45;39.07
40612;BME280;26317;44.894;20.286;2022-08-01T08:52:46;100578.63;;;26.52;39.15
40612;BME280;26317;44.894;20.286;2022-08-01T08:55:16;100569.25;;;26.61;39.40
40612;BME280;26317;44.894;20.286;2022-08-01T08:57:45;100563.44;;;26.66;38.32
40612;BME280;26317;44.894;20.286;2022-08-01T09:00:18;100562.31;;;26.74;38.00
40612;BME280;26317;44.894;20.286;2022-08-01T09:02:48;100565.97;;;26.85;36.88
40612;BME280;26317;44.894;20.286;2022-08-01T09:05:22;100545.03;;;26.77;37.94
40612;BME280;26317;44.894;20.286;2022-08-01T09:07:53;100561.78;;;26.98;36.43
40612;BME280;26317;44.894;20.286;2022-08-01T09:10:22;100568.56;;;27.08;37.22
40612;BME280;26317;44.894;20.286;2022-08-01T09:13:08;100572.91;;;27.09;35.54
40612;BME280;26317;44.894;20.286;2022-08-01T09:15:44;100559.94;;;27.13;36.83
40612;BME280;26317;44.894;20.286;2022-08-01T09:18:31;100560.78;;;27.20;36.31
40612;BME280;26317;44.894;20.286;2022-08-01T09:21:19;100556.47;;;27.26;35.32
40612;BME280;26317;44.894;20.286;2022-08-01T09:23:51;100558.09;;;27.31;35.06
40612;BME280;26317;44.894;20.286;2022-08-01T09:26:29;100547.94;;;27.38;35.66
40612;BME280;26317;44.894;20.286;2022-08-01T09:29:00;100555.94;;;27.54;36.38
40612;BME280;26317;44.894;20.286;2022-08-01T09:31:39;100548.84;;;27.57;35.25
40612;BME280;26317;44.894;20.286;2022-08-01T09:34:08;100537.03;;;27.56;34.68
40612;BME280;26317;44.894;20.286;2022-08-01T09:36:45;100541.47;;;27.71;35.08
40612;BME280;26317;44.894;20.286;2022-08-01T09:39:18;100545.06;;;27.86;35.77
40612;BME280;26317;44.894;20.286;2022-08-01T09:41:47;100535.66;;;27.98;34.78
40612;BME280;26317;44.894;20.286;2022-08-01T09:44:17;100547.16;;;28.10;34.22
40612;BME280;26317;44.894;20.286;2022-08-01T09:46:55;100544.44;;;28.17;34.45
40612;BME280;26317;44.894;20.286;2022-08-01T09:49:31;100542.91;;;28.34;34.82
40612;BME280;26317;44.894;20.286;2022-08-01T09:52:11;100543.28;;;28.40;34.12
40612;BME280;26317;44.894;20.286;2022-08-01T09:54:42;100490.44;;;28.23;33.14
40612;BME280;26317;44.894;20.286;2022-08-01T09:57:12;100532.66;;;28.52;32.07
40612;BME280;26317;44.894;20.286;2022-08-01T09:59:43;100537.38;;;28.34;33.07
40612;BME280;26317;44.894;20.286;2022-08-01T10:02:26;100529.50;;;28.36;31.86
40612;BME280;26317;44.894;20.286;2022-08-01T10:04:55;100533.47;;;28.49;32.65
40612;BME280;26317;44.894;20.286;2022-08-01T10:07:25;100496.38;;;28.40;31.80
40612;BME280;26317;44.894;20.286;2022-08-01T10:09:54;100531.16;;;28.76;32.16
40612;BME280;26317;44.894;20.286;2022-08-01T10:12:23;100525.63;;;28.90;31.02
40612;BME280;26317;44.894;20.286;2022-08-01T10:14:52;100526.03;;;28.89;31.91
40612;BME280;26317;44.894;20.286;2022-08-01T10:17:25;100519.72;;;28.92;31.89
40612;BME280;26317;44.894;20.286;2022-08-01T10:19:55;100504.31;;;28.69;31.65
40612;BME280;26317;44.894;20.286;2022-08-01T10:22:25;100505.88;;;28.63;32.05
40612;BME280;26317;44.894;20.286;2022-08-01T10:24:56;100515.38;;;28.91;32.92
40612;BME280;26317;44.894;20.286;2022-08-01T10:27:26;100518.53;;;29.00;32.12
40612;BME280;26317;44.894;20.286;2022-08-01T10:29:58;100503.16;;;28.92;30.97
40612;BME280;26317;44.894;20.286;2022-08-01T10:32:33;100516.16;;;29.12;31.44
40612;BME280;26317;44.894;20.286;2022-08-01T10:35:03;100505.91;;;29.09;31.61
40612;BME280;26317;44.894;20.286;2022-08-01T10:37:34;100513.78;;;29.21;30.67
40612;BME280;26317;44.894;20.286;2022-08-01T10:40:04;100513.38;;;29.37;31.15
40612;BME280;26317;44.894;20.286;2022-08-01T10:42:36;100501.16;;;29.35;30.71
40612;BME280;26317;44.894;20.286;2022-08-01T10:45:06;100512.97;;;29.39;31.21
40612;BME280;26317;44.894;20.286;2022-08-01T10:47:44;100505.88;;;29.41;31.90
40612;BME280;26317;44.894;20.286;2022-08-01T10:50:19;100509.44;;;29.35;30.15
40612;BME280;26317;44.894;20.286;2022-08-01T10:53:06;100508.63;;;29.38;31.03
40612;BME280;26317;44.894;20.286;2022-08-01T10:55:46;100502.28;;;29.48;31.32
40612;BME280;26317;44.894;20.286;2022-08-01T10:58:21;100514.50;;;29.54;30.16
40612;BME280;26317;44.894;20.286;2022-08-01T11:01:18;100510.56;;;29.55;30.27
40612;BME280;26317;44.894;20.286;2022-08-01T11:04:06;100506.59;;;29.63;30.12
40612;BME280;26317;44.894;20.286;2022-08-01T11:06:53;100502.59;;;29.75;31.68
40612;BME280;26317;44.894;20.286;2022-08-01T11:09:29;100496.22;;;29.81;30.13
40612;BME280;26317;44.894;20.286;2022-08-01T11:12:03;100498.56;;;29.97;30.54
40612;BME280;26317;44.894;20.286;2022-08-01T11:18:00;100496.00;;;30.27;29.63
40612;BME280;26317;44.894;20.286;2022-08-01T11:20:33;100498.34;;;30.32;29.14
40612;BME280;26317;44.894;20.286;2022-08-01T11:23:24;100495.53;;;30.39;28.98
40612;BME280;26317;44.894;20.286;2022-08-01T11:26:13;100492.00;;;30.39;28.99
40612;BME280;26317;44.894;20.286;2022-08-01T11:28:44;100470.28;;;30.34;29.04
40612;BME280;26317;44.894;20.286;2022-08-01T11:31:29;100482.41;;;30.54;28.10
40612;BME280;26317;44.894;20.286;2022-08-01T11:33:59;100487.06;;;30.68;28.52
40612;BME280;26317;44.894;20.286;2022-08-01T11:36:31;100464.81;;;30.78;28.97
40612;BME280;26317;44.894;20.286;2022-08-01T11:39:14;100482.50;;;30.91;28.62
40612;BME280;26317;44.894;20.286;2022-08-01T11:41:47;100480.38;;;31.10;28.29
40612;BME280;26317;44.894;20.286;2022-08-01T11:44:18;100468.81;;;31.15;28.40
40612;BME280;26317;44.894;20.286;2022-08-01T11:47:02;100465.28;;;31.14;26.72
40612;BME280;26317;44.894;20.286;2022-08-01T11:49:43;100459.75;;;31.11;27.59
40612;BME280;26317;44.894;20.286;2022-08-01T11:52:17;100443.25;;;30.96;27.41
40612;BME280;26317;44.894;20.286;2022-08-01T11:54:50;100466.03;;;31.18;27.57
40612;BME280;26317;44.894;20.286;2022-08-01T11:57:20;100463.19;;;31.25;27.12
40612;BME280;26317;44.894;20.286;2022-08-01T11:59:51;100462.03;;;31.19;26.86
40612;BME280;26317;44.894;20.286;2022-08-01T12:02:22;100460.75;;;31.27;27.67
40612;BME280;26317;44.894;20.286;2022-08-01T12:04:56;100428.47;;;31.14;27.19
40612;BME280;26317;44.894;20.286;2022-08-01T12:07:30;100447.69;;;31.28;27.98
40612;BME280;26317;44.894;20.286;2022-08-01T12:10:01;100443.13;;;31.14;27.47
40612;BME280;26317;44.894;20.286;2022-08-01T12:12:31;100429.59;;;30.79;27.88
40612;BME280;26317;44.894;20.286;2022-08-01T12:15:02;100448.84;;;30.89;26.94
40612;BME280;26317;44.894;20.286;2022-08-01T12:17:32;100427.78;;;30.99;27.69
40612;BME280;26317;44.894;20.286;2022-08-01T12:20:04;100431.53;;;31.23;27.94
40612;BME280;26317;44.894;20.286;2022-08-01T12:22:36;100437.75;;;31.34;27.05
40612;BME280;26317;44.894;20.286;2022-08-01T12:25:07;100442.16;;;31.28;27.64
40612;BME280;26317;44.894;20.286;2022-08-01T12:27:38;100439.97;;;31.12;27.83
40612;BME280;26317;44.894;20.286;2022-08-01T12:30:09;100425.75;;;31.07;26.84
40612;BME280;26317;44.894;20.286;2022-08-01T12:32:40;100425.13;;;30.88;27.81
40612;BME280;26317;44.894;20.286;2022-08-01T12:35:11;100436.84;;;31.07;28.57
40612;BME280;26317;44.894;20.286;2022-08-01T12:37:45;100430.44;;;31.13;28.02
40612;BME280;26317;44.894;20.286;2022-08-01T12:40:17;100413.78;;;31.17;28.27
40612;BME280;26317;44.894;20.286;2022-08-01T12:42:47;100429.13;;;31.25;27.77
40612;BME280;26317;44.894;20.286;2022-08-01T12:45:19;100413.38;;;31.15;27.96
40612;BME280;26317;44.894;20.286;2022-08-01T12:47:48;100409.97;;;31.03;28.32
40612;BME280;26317;44.894;20.286;2022-08-01T12:50:20;100417.91;;;30.98;27.94
40612;BME280;26317;44.894;20.286;2022-08-01T12:52:53;100410.72;;;31.08;28.21
40612;BME280;26317;44.894;20.286;2022-08-01T12:55:23;100416.09;;;31.22;28.35
40612;BME280;26317;44.894;20.286;2022-08-01T12:58:04;100422.19;;;31.43;27.93
40612;BME280;26317;44.894;20.286;2022-08-01T13:00:34;100419.06;;;31.38;27.40
40612;BME280;26317;44.894;20.286;2022-08-01T13:03:05;100407.16;;;31.41;26.85
40612;BME280;26317;44.894;20.286;2022-08-01T13:05:43;100410.97;;;31.54;27.65
40612;BME280;26317;44.894;20.286;2022-08-01T13:08:16;100400.94;;;31.90;27.43
40612;BME280;26317;44.894;20.286;2022-08-01T13:10:46;100408.56;;;32.13;26.77
40612;BME280;26317;44.894;20.286;2022-08-01T13:13:17;100402.44;;;32.25;26.08